createdAt,value
2024-02-26T00:00:42.086Z,8.32
2024-02-26T00:03:48.908Z,8.30
2024-02-26T00:06:56.128Z,8.25
2024-02-26T00:10:02.380Z,8.20
2024-02-26T00:13:06.957Z,8.18
2024-02-26T00:16:13.217Z,8.16
2024-02-26T00:19:19.479Z,8.16
2024-02-26T00:22:25.784Z,8.18
2024-02-26T00:25:30.286Z,8.19
2024-02-26T00:28:36.472Z,8.18
2024-02-26T00:31:41.221Z,8.19
2024-02-26T00:34:47.430Z,8.19
2024-02-26T00:37:52.074Z,8.19
2024-02-26T00:40:58.296Z,8.19
2024-02-26T00:44:02.773Z,8.14
2024-02-26T00:47:09.259Z,8.10
2024-02-26T00:50:15.648Z,8.07
2024-02-26T00:53:21.734Z,8.06
2024-02-26T00:56:27.927Z,8.01
2024-02-26T00:59:32.508Z,8.02
2024-02-26T01:02:39.718Z,8.03
2024-02-26T01:05:46.335Z,8.03
2024-02-26T01:08:52.787Z,7.99
2024-02-26T01:11:59.053Z,7.95
2024-02-26T01:15:05.830Z,7.91
2024-02-26T01:18:12.632Z,7.85
2024-02-26T01:21:19.008Z,7.87
2024-02-26T01:24:25.143Z,7.92
2024-02-26T01:27:31.311Z,7.95
2024-02-26T01:30:36.048Z,7.95
2024-02-26T01:33:42.221Z,7.93
2024-02-26T01:36:48.883Z,7.90
2024-02-26T01:39:55.075Z,7.86
2024-02-26T01:42:59.523Z,7.82
2024-02-26T01:46:06.417Z,7.77
2024-02-26T01:49:14.842Z,7.66
2024-02-26T01:52:22.858Z,7.53
2024-02-26T01:55:30.368Z,7.42
2024-02-26T01:58:38.480Z,7.40
2024-02-26T02:01:47.453Z,7.44
2024-02-26T02:04:53.942Z,7.48
2024-02-26T02:08:01.185Z,7.51
2024-02-26T02:11:08.915Z,7.49
2024-02-26T02:14:15.161Z,7.47
2024-02-26T02:17:19.713Z,7.44
2024-02-26T02:20:34.432Z,7.35
2024-02-26T02:23:40.611Z,7.20
2024-02-26T02:26:45.192Z,7.08
2024-02-26T02:29:52.078Z,7.07
2024-02-26T02:33:00.381Z,7.06
2024-02-26T02:36:11.480Z,7.04
2024-02-26T02:39:17.910Z,7.02
2024-02-26T02:42:24.120Z,7.00
2024-02-26T02:45:28.590Z,6.98
2024-02-26T02:48:34.834Z,6.95
2024-02-26T02:51:40.967Z,6.94
2024-02-26T02:54:48.310Z,6.94
2024-02-26T02:57:54.394Z,6.92
2024-02-26T03:01:02.107Z,6.92
2024-02-26T03:04:08.858Z,6.91
2024-02-26T03:07:15.028Z,6.83
2024-02-26T03:10:19.521Z,6.77
2024-02-26T03:13:25.740Z,6.72
2024-02-26T03:16:30.482Z,6.61
2024-02-26T03:19:36.649Z,6.51
2024-02-26T03:22:42.414Z,6.52
2024-02-26T03:25:49.450Z,6.48
2024-02-26T03:28:55.652Z,6.44
2024-02-26T03:32:00.194Z,6.34
2024-02-26T03:35:08.671Z,6.19
2024-02-26T03:38:15.401Z,6.10
2024-02-26T03:41:21.529Z,6.11
2024-02-26T03:44:27.654Z,6.12
2024-02-26T03:47:33.791Z,6.12
2024-02-26T03:50:40.046Z,6.12
2024-02-26T03:53:44.611Z,6.11
2024-02-26T03:56:50.937Z,6.08
2024-02-26T03:59:55.598Z,6.05
2024-02-26T04:03:02.388Z,6.04
2024-02-26T04:06:10.694Z,6.09
2024-02-26T04:09:17.783Z,6.09
2024-02-26T04:12:24.180Z,6.01
2024-02-26T04:15:30.576Z,5.94
2024-02-26T04:18:36.968Z,5.90
2024-02-26T04:21:45.113Z,5.87
2024-02-26T04:24:51.256Z,5.86
2024-02-26T04:27:57.382Z,5.85
2024-02-26T04:31:03.434Z,5.82
2024-02-26T04:34:11.486Z,5.76
2024-02-26T04:37:19.159Z,5.67
2024-02-26T04:40:25.186Z,5.64
2024-02-26T04:43:31.274Z,5.64
2024-02-26T04:46:37.366Z,5.64
2024-02-26T04:49:43.471Z,5.63
2024-02-26T04:52:49.573Z,5.46
2024-02-26T04:55:55.869Z,5.26
2024-02-26T04:59:00.441Z,5.18
2024-02-26T05:02:07.085Z,5.13
2024-02-26T05:05:14.061Z,5.14
2024-02-26T05:08:20.394Z,5.12
2024-02-26T05:11:27.041Z,4.96
2024-02-26T05:14:33.252Z,4.82
2024-02-26T05:17:39.363Z,4.78
2024-02-26T05:20:45.615Z,4.76
2024-02-26T05:23:51.851Z,4.76
2024-02-26T05:26:56.897Z,4.80
2024-02-26T05:30:03.142Z,4.84
2024-02-26T05:33:07.943Z,4.89
2024-02-26T05:36:20.054Z,4.85
2024-02-26T05:39:26.455Z,4.75
2024-02-26T05:42:31.295Z,4.75
2024-02-26T05:45:37.609Z,4.72
2024-02-26T05:48:43.907Z,4.63
2024-02-26T05:51:48.382Z,4.55
2024-02-26T05:54:54.533Z,4.39
2024-02-26T05:58:00.724Z,4.37
2024-02-26T06:01:05.350Z,4.28
2024-02-26T06:04:13.055Z,4.22
2024-02-26T06:07:19.136Z,4.17
2024-02-26T06:10:25.442Z,4.18
2024-02-26T06:13:32.534Z,4.22
2024-02-26T06:16:38.758Z,4.24
2024-02-26T06:19:44.927Z,4.31
2024-02-26T06:22:49.498Z,4.34
2024-02-26T06:25:55.710Z,4.36
2024-02-26T06:29:01.840Z,4.39
2024-02-26T06:32:09.154Z,4.44
2024-02-26T06:35:15.420Z,4.35
2024-02-26T06:38:19.911Z,4.32
2024-02-26T06:41:28.876Z,4.40
2024-02-26T06:44:35.014Z,4.42
2024-02-26T06:47:41.374Z,4.52
2024-02-26T06:50:47.734Z,4.65
2024-02-26T06:53:53.904Z,4.77
2024-02-26T06:57:00.214Z,4.91
2024-02-26T07:00:07.518Z,5.04
2024-02-26T07:03:15.420Z,5.15
2024-02-26T07:06:21.742Z,5.26
2024-02-26T07:09:26.529Z,5.35
2024-02-26T07:12:32.761Z,5.43
2024-02-26T07:15:37.385Z,5.52
2024-02-26T07:18:44.508Z,5.57
2024-02-26T07:21:50.855Z,5.52
2024-02-26T07:24:56.917Z,5.51
2024-02-26T07:28:02.984Z,5.59
2024-02-26T07:31:09.320Z,5.67
2024-02-26T07:34:15.800Z,5.74
2024-02-26T07:37:21.879Z,5.81
2024-02-26T07:40:28.121Z,5.90
2024-02-26T07:43:32.629Z,5.98
2024-02-26T07:46:38.803Z,6.06
2024-02-26T07:49:45.495Z,6.15
2024-02-26T07:52:52.517Z,6.22
2024-02-26T07:55:58.733Z,6.30
2024-02-26T07:59:04.818Z,6.39
2024-02-26T08:02:11.004Z,6.48
2024-02-26T08:05:17.336Z,6.57
2024-02-26T08:08:21.748Z,6.66
2024-02-26T08:11:28.007Z,6.75
2024-02-26T08:14:33.992Z,6.83
2024-02-26T08:17:38.646Z,6.93
2024-02-26T08:20:44.979Z,7.05
2024-02-26T08:23:49.574Z,7.18
2024-02-26T08:26:56.003Z,7.32
2024-02-26T08:30:03.126Z,7.46
2024-02-26T08:33:09.547Z,7.61
2024-02-26T08:36:14.314Z,7.75
2024-02-26T08:39:20.725Z,7.88
2024-02-26T08:42:26.874Z,8.04
2024-02-26T08:45:31.580Z,8.24
2024-02-26T08:48:37.824Z,8.42
2024-02-26T08:51:45.156Z,8.54
2024-02-26T08:54:51.177Z,8.66
2024-02-26T08:57:57.295Z,8.81
2024-02-26T09:01:03.506Z,8.96
2024-02-26T09:04:08.145Z,9.16
2024-02-26T09:07:14.269Z,9.38
2024-02-26T09:10:18.901Z,9.60
2024-02-26T09:13:25.084Z,9.81
2024-02-26T09:16:29.552Z,10.02
2024-02-26T09:19:35.986Z,10.24
2024-02-26T09:22:42.235Z,10.47
2024-02-26T09:25:47.044Z,10.70
2024-02-26T09:28:53.229Z,10.94
2024-02-26T09:31:57.797Z,11.18
2024-02-26T09:35:04.809Z,11.42
2024-02-26T09:38:11.123Z,11.62
2024-02-26T09:41:18.938Z,11.81
2024-02-26T09:44:26.593Z,12.01
2024-02-26T09:47:35.647Z,12.21
2024-02-26T09:50:43.483Z,12.37
2024-02-26T09:53:53.716Z,12.48
2024-02-26T09:57:04.835Z,12.57
2024-02-26T10:00:17.141Z,12.64
2024-02-26T10:03:27.445Z,12.69
2024-02-26T10:06:34.106Z,12.76
2024-02-26T10:09:40.694Z,12.88
2024-02-26T10:12:47.031Z,13.01
2024-02-26T10:15:53.163Z,13.10
2024-02-26T10:18:59.905Z,13.17
2024-02-26T10:22:07.480Z,13.28
2024-02-26T10:25:14.186Z,13.41
2024-02-26T10:28:20.648Z,13.53
2024-02-26T10:31:27.124Z,13.65
2024-02-26T10:34:33.710Z,13.77
2024-02-26T10:37:40.001Z,13.86
2024-02-26T10:40:46.059Z,13.93
2024-02-26T10:43:50.582Z,13.98
2024-02-26T10:46:57.933Z,14.06
2024-02-26T10:50:06.082Z,14.19
2024-02-26T10:53:19.081Z,14.32
2024-02-26T10:56:28.290Z,14.43
2024-02-26T10:59:37.488Z,14.54
2024-02-26T11:02:47.175Z,14.66
2024-02-26T11:05:54.216Z,14.78
2024-02-26T11:09:01.747Z,14.89
2024-02-26T11:12:12.424Z,14.98
2024-02-26T11:15:20.666Z,15.06
2024-02-26T11:18:29.313Z,15.16
2024-02-26T11:21:42.376Z,15.26
2024-02-26T11:24:49.077Z,15.32
2024-02-26T11:27:59.213Z,15.35
2024-02-26T11:31:08.485Z,15.44
2024-02-26T11:34:15.556Z,15.52
2024-02-26T11:37:22.645Z,15.62
2024-02-26T11:40:29.849Z,15.70
2024-02-26T11:44:01.999Z,15.74
2024-02-26T11:47:21.014Z,15.82
2024-02-26T11:50:41.940Z,15.93
2024-02-26T11:53:51.233Z,16.02
2024-02-26T11:57:00.289Z,16.10
2024-02-26T12:00:17.966Z,16.15
2024-02-26T12:03:25.302Z,16.09
2024-02-26T12:06:32.324Z,15.94
2024-02-26T12:09:40.171Z,15.79
2024-02-26T12:12:47.459Z,15.70
2024-02-26T12:16:01.176Z,15.66
2024-02-26T12:19:09.485Z,15.70
2024-02-26T12:22:17.319Z,15.83
2024-02-26T12:25:25.041Z,15.99
2024-02-26T12:28:33.579Z,16.10
2024-02-26T12:31:41.261Z,16.17
2024-02-26T12:34:48.263Z,16.24
2024-02-26T12:37:54.861Z,16.28
2024-02-26T12:41:01.129Z,16.33
2024-02-26T12:44:08.258Z,16.37
2024-02-26T12:47:17.787Z,16.36
2024-02-26T12:50:24.282Z,16.33
2024-02-26T12:53:30.879Z,16.31
2024-02-26T12:56:37.335Z,16.27
2024-02-26T12:59:43.681Z,16.25
2024-02-26T13:02:51.200Z,16.26
2024-02-26T13:05:57.728Z,16.25
2024-02-26T13:09:04.057Z,16.23
2024-02-26T13:12:11.895Z,16.19
2024-02-26T13:15:20.975Z,16.12
2024-02-26T13:18:32.695Z,16.05
2024-02-26T13:21:39.096Z,16.04
2024-02-26T13:24:45.238Z,16.01
2024-02-26T13:27:51.261Z,15.93
2024-02-26T13:30:57.619Z,15.86
2024-02-26T13:34:04.079Z,15.79
2024-02-26T13:37:10.493Z,15.69
2024-02-26T13:40:17.584Z,15.62
2024-02-26T13:43:23.868Z,15.54
2024-02-26T13:46:30.102Z,15.52
2024-02-26T13:49:36.214Z,15.50
2024-02-26T13:52:42.473Z,15.45
2024-02-26T13:55:48.461Z,15.36
2024-02-26T13:58:52.987Z,15.26
2024-02-26T14:01:59.100Z,15.16
2024-02-26T14:05:05.594Z,15.06
2024-02-26T14:08:12.148Z,14.95
2024-02-26T14:11:18.485Z,14.87
2024-02-26T14:14:24.665Z,14.77
2024-02-26T14:17:31.275Z,14.70
2024-02-26T14:20:37.324Z,14.65
2024-02-26T14:23:41.811Z,14.63
2024-02-26T14:26:48.169Z,14.65
2024-02-26T14:29:54.618Z,14.69
2024-02-26T14:33:00.975Z,14.72
2024-02-26T14:36:08.370Z,14.74
2024-02-26T14:39:14.845Z,14.73
2024-02-26T14:42:20.992Z,14.67
2024-02-26T14:45:27.162Z,14.58
2024-02-26T14:48:34.177Z,14.49
2024-02-26T14:51:40.517Z,14.37
2024-02-26T14:54:46.719Z,14.25
2024-02-26T14:57:52.996Z,14.18
2024-02-26T15:00:59.008Z,14.11
2024-02-26T15:04:05.219Z,14.03
2024-02-26T15:07:15.792Z,13.98
2024-02-26T15:10:22.583Z,13.90
2024-02-26T15:13:27.283Z,13.82
2024-02-26T15:16:33.477Z,13.69
2024-02-26T15:19:39.878Z,13.55
2024-02-26T15:22:46.349Z,13.47
2024-02-26T15:25:52.605Z,13.40
2024-02-26T15:28:58.768Z,13.31
2024-02-26T15:32:04.750Z,13.24
2024-02-26T15:35:12.611Z,13.18
2024-02-26T15:38:18.882Z,13.11
2024-02-26T15:41:25.241Z,13.03
2024-02-26T15:44:31.345Z,12.97
2024-02-26T15:47:36.527Z,12.89
2024-02-26T15:50:43.573Z,12.82
2024-02-26T15:53:50.963Z,12.75
2024-02-26T15:56:57.783Z,12.68
2024-02-26T16:00:07.782Z,12.63
2024-02-26T16:03:15.362Z,12.56
2024-02-26T16:06:28.439Z,12.47
2024-02-26T16:09:34.784Z,12.38
2024-02-26T16:12:44.061Z,12.30
2024-02-26T16:15:56.206Z,12.23
2024-02-26T16:19:12.539Z,12.16
2024-02-26T16:22:18.769Z,12.09
2024-02-26T16:25:25.605Z,12.02
2024-02-26T16:28:31.629Z,11.96
2024-02-26T16:31:37.753Z,11.92
2024-02-26T16:34:42.584Z,11.88
2024-02-26T16:37:48.609Z,11.82
2024-02-26T16:40:54.754Z,11.77
2024-02-26T16:43:59.376Z,11.71
2024-02-26T16:47:04.179Z,11.61
2024-02-26T16:50:10.335Z,11.54
2024-02-26T16:53:14.993Z,11.49
2024-02-26T16:56:19.564Z,11.44
2024-02-26T16:59:29.034Z,11.39
2024-02-26T17:02:33.976Z,11.32
2024-02-26T17:05:38.540Z,11.26
2024-02-26T17:08:43.369Z,11.19
2024-02-26T17:11:48.450Z,11.16
2024-02-26T17:14:53.628Z,11.12
2024-02-26T17:17:58.261Z,11.08
2024-02-26T17:21:02.813Z,11.06
2024-02-26T17:24:09.390Z,11.05
2024-02-26T17:27:14.084Z,11.04
2024-02-26T17:30:18.615Z,11.03
2024-02-26T17:33:23.226Z,11.03
2024-02-26T17:36:27.720Z,11.00
2024-02-26T17:39:32.794Z,11.00
2024-02-26T17:42:37.976Z,11.00
2024-02-26T17:45:42.372Z,10.97
2024-02-26T17:48:47.121Z,10.96
2024-02-26T17:51:51.816Z,10.96
2024-02-26T17:54:56.393Z,10.94
2024-02-26T17:58:01.083Z,10.87
2024-02-26T18:01:05.838Z,10.77
2024-02-26T18:04:10.345Z,10.71
2024-02-26T18:07:14.916Z,10.71
2024-02-26T18:10:20.441Z,10.67
2024-02-26T18:13:25.219Z,10.60
2024-02-26T18:16:30.118Z,10.55
2024-02-26T18:19:35.007Z,10.49
2024-02-26T18:22:39.896Z,10.41
2024-02-26T18:25:44.501Z,10.35
2024-02-26T18:28:49.084Z,10.32
2024-02-26T18:31:53.639Z,10.28
2024-02-26T18:34:58.181Z,10.17
2024-02-26T18:38:03.404Z,10.04
2024-02-26T18:41:08.049Z,9.96
2024-02-26T18:44:12.670Z,9.90
2024-02-26T18:47:18.345Z,9.83
2024-02-26T18:50:22.832Z,9.69
2024-02-26T18:53:27.410Z,9.62
2024-02-26T18:56:32.144Z,9.65
2024-02-26T18:59:36.664Z,9.72
2024-02-26T19:02:41.277Z,9.75
2024-02-26T19:05:45.854Z,9.76
2024-02-26T19:08:50.618Z,9.77
2024-02-26T19:11:56.800Z,9.75
2024-02-26T19:15:01.702Z,9.75
2024-02-26T19:18:07.539Z,9.70
2024-02-26T19:21:12.256Z,9.60
2024-02-26T19:24:18.308Z,9.47
2024-02-26T19:27:22.958Z,9.32
2024-02-26T19:30:27.561Z,9.16
2024-02-26T19:33:32.197Z,9.03
2024-02-26T19:36:37.208Z,8.99
2024-02-26T19:39:41.830Z,9.02
2024-02-26T19:42:46.687Z,8.97
2024-02-26T19:45:51.339Z,8.90
2024-02-26T19:48:58.847Z,8.79
2024-02-26T19:52:03.366Z,8.76
2024-02-26T19:55:08.890Z,8.72
2024-02-26T19:58:13.468Z,8.72
2024-02-26T20:01:18.133Z,8.72
2024-02-26T20:04:22.840Z,8.71
2024-02-26T20:07:27.743Z,8.67
2024-02-26T20:10:32.290Z,8.64
2024-02-26T20:13:38.855Z,8.63
2024-02-26T20:16:43.485Z,8.62
2024-02-26T20:19:48.093Z,8.58
2024-02-26T20:22:52.635Z,8.51
2024-02-26T20:25:59.599Z,8.49
2024-02-26T20:29:04.416Z,8.47
2024-02-26T20:32:09.017Z,8.49
2024-02-26T20:35:13.502Z,8.50
2024-02-26T20:38:19.031Z,8.49
2024-02-26T20:41:24.647Z,8.45
2024-02-26T20:44:29.288Z,8.37
2024-02-26T20:47:33.777Z,8.30
2024-02-26T20:50:38.606Z,8.21
2024-02-26T20:53:44.377Z,8.16
2024-02-26T20:56:49.431Z,8.13
2024-02-26T20:59:54.093Z,8.06
2024-02-26T21:02:58.919Z,8.01
2024-02-26T21:06:04.972Z,7.96
2024-02-26T21:09:09.796Z,7.87
2024-02-26T21:12:14.509Z,7.83
2024-02-26T21:15:19.333Z,7.82
2024-02-26T21:18:24.258Z,7.71
2024-02-26T21:21:29.767Z,7.66
2024-02-26T21:24:34.460Z,7.63
2024-02-26T21:27:39.097Z,7.67
2024-02-26T21:30:43.651Z,7.71
2024-02-26T21:33:48.890Z,7.70
2024-02-26T21:36:53.603Z,7.64
2024-02-26T21:39:58.056Z,7.57
2024-02-26T21:43:03.129Z,7.53
2024-02-26T21:46:07.864Z,7.52
2024-02-26T21:49:12.554Z,7.49
2024-02-26T21:52:18.661Z,7.42
2024-02-26T21:55:24.183Z,7.38
2024-02-26T21:58:28.842Z,7.35
2024-02-26T22:01:33.614Z,7.29
2024-02-26T22:04:38.480Z,7.18
2024-02-26T22:07:44.361Z,7.08
2024-02-26T22:10:49.764Z,7.00
2024-02-26T22:13:54.404Z,6.91
2024-02-26T22:16:58.971Z,6.82
2024-02-26T22:20:06.831Z,6.76
2024-02-26T22:23:11.458Z,6.74
2024-02-26T22:26:16.554Z,6.72
2024-02-26T22:29:21.438Z,6.69
2024-02-26T22:32:26.171Z,6.60
2024-02-26T22:35:30.706Z,6.50
2024-02-26T22:38:35.264Z,6.42
2024-02-26T22:41:44.869Z,6.33
2024-02-26T22:44:49.401Z,6.30
2024-02-26T22:47:54.073Z,6.28
2024-02-26T22:50:58.863Z,6.25
2024-02-26T22:54:03.469Z,6.22
2024-02-26T22:57:08.167Z,6.20
2024-02-26T23:00:26.449Z,6.17
2024-02-26T23:03:31.144Z,6.14
2024-02-26T23:06:35.958Z,6.12
2024-02-26T23:09:40.658Z,6.08
2024-02-26T23:12:45.591Z,6.02
2024-02-26T23:15:54.065Z,5.96
2024-02-26T23:18:58.637Z,5.85
2024-02-26T23:22:03.153Z,5.75
2024-02-26T23:25:09.115Z,5.73
2024-02-26T23:28:13.651Z,5.74
2024-02-26T23:31:18.196Z,5.76
2024-02-26T23:34:22.771Z,5.77
2024-02-26T23:37:27.777Z,5.78
2024-02-26T23:40:35.180Z,5.76
2024-02-26T23:43:39.903Z,5.75
2024-02-26T23:46:44.717Z,5.73
2024-02-26T23:49:50.156Z,5.71
2024-02-26T23:52:54.732Z,5.68
2024-02-26T23:55:59.388Z,5.62
2024-02-26T23:59:03.942Z,5.58
